DTTJLOWI

Guest
Details From DTTJ - Djerba Zarzis
To LOWI - Innsbruck Kranebitten
Flight Number -
Tags Generated
Created
Modified
Stats Distance 804 nm / 1,490 km
Max Altitude 0 ft / 0 m
Waypoints 5
Social Downloads 0
Likes 0
Share VATSIM

Download

Looking for another format? Having issues loading an existing format? Contact us
Advertisement - Login to hide

Notes

Generated

Route

DTTJ BULAR GRO05 MATAR LOWI

ID Type Via Altitude Latitude Longitude Leg Dist Tot Dist Heading (true) Name
O DTTJ APT - 0 ft / 0 m 33.87503˚ 10.76034˚ - 0 nm - -
BULAR FIX - 0 ft / 0 m 38.31306˚ 10.79444˚ 266 nm 266 nm 0° / 0° -
GRO05 FIX - 0 ft / 0 m 42.69784˚ 11.00242˚ 263 nm 530 nm 2° / 2° -
MATAR FIX - 0 ft / 0 m 46.97500˚ 11.25333˚ 257 nm 787 nm 2° / 2° -
O LOWI APT - 0 ft / 0 m 47.25883˚ 11.33091˚ 17 nm 804 nm 11° / 11° -

Altitude Profile

Advertisement - Login to hide

Weather


0- 5 10 15 20 25 30 35+ Temperature / ° C

Clouds and Precipitation
Forecast for 2017-12-12 00:00 UTC. Updated an hour ago

Ground ~20,000 ft ~40,000 ft Winds

DTTJ

Details ICAO DTTJ (DJE)
Name Djerba Zarzis
Region Tunisia
Timezone Africa/Tunis (UTC+1.0)
Stats Elevation 18 ft / 5 m (AMSL)
Location 33.875447° 10.777153°
Runways 1
Magnetic Variation 2.327° E

METAR

DTTJ 120030Z 16010KT 8000 NSC 12/05 Q1015 NOSIG

Decode

TAF

TAF DTTJ 120009Z 1200/1224 16013KT 8000 NSC

Decode

Departure Runways

ID Width Length Bearing (true) Bearing (mag) Surface Threshold Offset Overrun Length
09 148 ft / 45 m 10,191 ft / 3,106 m 88.28° 85.95° Asphalt 0 ft / 0 m 197 ft / 60 m
27 148 ft / 45 m 10,191 ft / 3,106 m 268.30° 265.97° Asphalt 0 ft / 0 m 197 ft / 60 m

LOWI

Details ICAO LOWI (INN)
Name Innsbruck Kranebitten
Region Austria
Timezone Europe/Vienna (UTC+1.0)
Stats Elevation 1,906 ft / 581 m (AMSL)
Location 47.260226° 11.343967°
Runways 1
Magnetic Variation 3.018° E

METAR

LOWI 120020Z AUTO 20004KT 130V250 9999 -RA FEW016 BKN036 07/05 Q0993

Decode

TAF

TAF LOWI 112315Z 1200/1224 07005KT 9999 -RA SCT030 BKN050 TX06/1211Z TN02/1300Z TEMPO 1200/1204 30012G25KT RA SCT010 BKN030 TEMPO 1204/1214 27005KT 3000 RASN SCT005 BKN013 BECMG 1213/1215 8000 -SN SCT007 BKN020 PROB40 TEMPO 1215/1219 27008KT 2000 SHSN BKN010

Decode

Destination Runways

ID Width Length Bearing (true) Bearing (mag) Surface Threshold Offset Overrun Length
08 148 ft / 45 m 6,545 ft / 1,995 m 81.02° 78.00° Asphalt 338 ft / 103 m 0 ft / 0 m
26 148 ft / 45 m 6,545 ft / 1,995 m 261.04° 258.02° Asphalt 0 ft / 0 m 0 ft / 0 m

Approach Navaids

Runway Type Ident Frequency Range Bearing (true) Bearing (mag) Slope Elevation
26 Localiser OEV 111.10 MHz 27 nm / 50 km 256.00° 252.98° - 1,906 ft / 581 m (AMSL)
26 Localiser OEJ 109.70 MHz 30 nm / 56 km 69.00° 65.98° - 1,906 ft / 581 m (AMSL)
26 Glidescope OEV 111.10 MHz 18 nm / 33 km 256.00° 252.98° 3.80° 1,911 ft / 582 m (AMSL)
26 DME OEJ 109.70 MHz 30 nm / 56 km - - - 1,906 ft / 581 m (AMSL)
26 DME OEV 111.10 MHz 27 nm / 50 km - - - 1,911 ft / 582 m (AMSL)

Popular Alternatives